createdAt,value
2019-03-05T00:00:41.666Z,1.00
2019-03-05T00:03:10.403Z,1.20
2019-03-05T00:05:39.140Z,1.20
2019-03-05T00:08:08.049Z,1.07
2019-03-05T00:10:36.931Z,1.67
2019-03-05T00:13:05.740Z,1.30
2019-03-05T00:15:34.622Z,1.20
2019-03-05T00:18:03.593Z,1.10
2019-03-05T00:20:32.327Z,1.50
2019-03-05T00:23:01.068Z,1.10
2019-03-05T00:25:29.920Z,0.90
2019-03-05T00:28:07.863Z,1.55
2019-03-05T00:31:01.719Z,1.40
2019-03-05T00:33:41.355Z,1.50
2019-03-05T00:36:14.167Z,1.02
2019-03-05T00:39:17.456Z,0.97
2019-03-05T00:42:29.130Z,1.10
2019-03-05T00:45:11.581Z,1.00
2019-03-05T00:47:56.734Z,1.00
2019-03-05T00:51:00.561Z,1.00
2019-03-05T00:54:03.168Z,1.27
2019-03-05T00:56:56.714Z,1.00
2019-03-05T00:59:54.154Z,1.00
2019-03-05T01:03:03.412Z,1.20
2019-03-05T01:05:50.013Z,1.05
2019-03-05T01:08:19.781Z,1.13
2019-03-05T01:10:48.785Z,1.23
2019-03-05T01:13:17.572Z,1.10
2019-03-05T01:15:46.457Z,1.20
2019-03-05T01:18:15.202Z,1.00
2019-03-05T01:20:44.112Z,0.70
2019-03-05T01:23:12.855Z,0.70
2019-03-05T01:25:41.673Z,1.33
2019-03-05T01:28:10.403Z,0.90
2019-03-05T01:30:51.746Z,0.93
2019-03-05T01:33:20.600Z,1.20
2019-03-05T01:35:53.621Z,0.97
2019-03-05T01:38:22.357Z,1.17
2019-03-05T01:40:56.537Z,1.10
2019-03-05T01:43:25.368Z,0.87
2019-03-05T01:45:54.398Z,0.90
2019-03-05T01:48:23.360Z,1.30
2019-03-05T01:50:52.094Z,1.17
2019-03-05T01:53:20.838Z,1.37
2019-03-05T01:55:49.629Z,1.00
2019-03-05T01:58:18.358Z,0.87
2019-03-05T02:00:47.235Z,1.20
2019-03-05T02:03:16.038Z,1.30
2019-03-05T02:05:45.139Z,1.40
2019-03-05T02:08:15.401Z,1.22
2019-03-05T02:10:44.646Z,0.97
2019-03-05T02:13:13.452Z,0.90
2019-03-05T02:15:42.224Z,1.10
2019-03-05T02:18:17.205Z,1.00
2019-03-05T02:20:46.216Z,1.10
2019-03-05T02:23:22.657Z,1.20
2019-03-05T02:26:21.097Z,1.10
2019-03-05T02:29:02.776Z,0.90
2019-03-05T02:32:12.813Z,1.30
2019-03-05T02:35:05.295Z,1.57
2019-03-05T02:38:22.235Z,1.12
2019-03-05T02:41:19.304Z,1.10
2019-03-05T02:43:58.793Z,1.30
2019-03-05T02:46:59.688Z,1.40
2019-03-05T02:50:06.905Z,1.27
2019-03-05T02:53:07.466Z,1.30
2019-03-05T02:56:16.524Z,0.90
2019-03-05T02:58:43.981Z,1.00
2019-03-05T03:01:21.980Z,1.20
2019-03-05T03:03:54.357Z,0.83
2019-03-05T03:06:28.554Z,1.40
2019-03-05T03:09:46.811Z,1.37
2019-03-05T03:12:15.543Z,1.50
2019-03-05T03:14:44.436Z,1.02
2019-03-05T03:17:13.314Z,1.20
2019-03-05T03:19:42.044Z,1.50
2019-03-05T03:22:12.153Z,1.20
2019-03-05T03:24:40.894Z,1.27
2019-03-05T03:27:09.697Z,1.10
2019-03-05T03:29:38.459Z,1.50
2019-03-05T03:32:07.260Z,1.30
2019-03-05T03:34:36.022Z,1.20
2019-03-05T03:37:04.836Z,1.30
2019-03-05T03:39:33.651Z,1.32
2019-03-05T03:42:02.402Z,1.10
2019-03-05T03:44:31.127Z,1.40
2019-03-05T03:46:59.872Z,1.10
2019-03-05T03:49:29.526Z,1.30
2019-03-05T03:51:58.276Z,1.27
2019-03-05T03:54:27.014Z,1.00
2019-03-05T03:56:55.903Z,1.53
2019-03-05T03:59:24.722Z,1.00
2019-03-05T04:01:53.541Z,1.12
2019-03-05T04:04:22.335Z,1.27
2019-03-05T04:06:51.156Z,1.30
2019-03-05T04:09:19.902Z,1.73
2019-03-05T04:11:50.199Z,1.57
2019-03-05T04:14:18.923Z,1.30
2019-03-05T04:16:47.666Z,1.10
2019-03-05T04:19:19.717Z,1.10
2019-03-05T04:21:48.469Z,1.30
2019-03-05T04:24:18.303Z,0.90
2019-03-05T04:26:47.172Z,1.10
2019-03-05T04:29:16.013Z,0.98
2019-03-05T04:31:44.769Z,1.13
2019-03-05T04:34:13.492Z,0.73
2019-03-05T04:36:42.225Z,1.00
2019-03-05T04:39:12.333Z,1.27
2019-03-05T04:41:41.181Z,1.20
2019-03-05T04:44:09.920Z,1.10
2019-03-05T04:46:44.830Z,1.00
2019-03-05T04:49:34.279Z,1.10
2019-03-05T04:52:05.839Z,1.27
2019-03-05T04:54:34.596Z,1.20
2019-03-05T04:57:03.370Z,1.70
2019-03-05T04:59:32.096Z,1.20
2019-03-05T05:02:00.915Z,1.20
2019-03-05T05:04:29.642Z,0.90
2019-03-05T05:06:58.392Z,1.23
2019-03-05T05:09:27.153Z,1.00
2019-03-05T05:11:55.923Z,1.10
2019-03-05T05:14:24.707Z,1.50
2019-03-05T05:16:53.435Z,1.20
2019-03-05T05:19:22.156Z,1.13
2019-03-05T05:21:50.886Z,0.98
2019-03-05T05:24:19.623Z,1.20
2019-03-05T05:26:48.412Z,1.57
2019-03-05T05:29:17.137Z,1.10
2019-03-05T05:31:45.938Z,1.20
2019-03-05T05:34:14.676Z,1.00
2019-03-05T05:36:43.441Z,1.37
2019-03-05T05:39:48.148Z,1.10
2019-03-05T05:42:16.961Z,1.12
2019-03-05T05:44:45.763Z,1.40
2019-03-05T05:47:14.525Z,1.25
2019-03-05T05:49:43.350Z,1.32
2019-03-05T05:52:12.112Z,1.30
2019-03-05T05:54:41.055Z,1.10
2019-03-05T05:57:10.278Z,1.53
2019-03-05T05:59:39.002Z,1.50
2019-03-05T06:02:07.739Z,1.37
2019-03-05T06:04:36.530Z,1.53
2019-03-05T06:07:05.317Z,1.45
2019-03-05T06:09:34.070Z,1.40
2019-03-05T06:12:02.822Z,1.20
2019-03-05T06:14:31.556Z,1.10
2019-03-05T06:17:00.293Z,1.17
2019-03-05T06:19:29.035Z,1.43
2019-03-05T06:21:57.788Z,1.20
2019-03-05T06:24:26.544Z,2.07
2019-03-05T06:26:55.263Z,1.40
2019-03-05T06:29:24.016Z,1.27
2019-03-05T06:31:52.900Z,1.17
2019-03-05T06:34:21.635Z,1.10
2019-03-05T06:36:55.736Z,2.93
2019-03-05T06:39:24.642Z,1.20
2019-03-05T06:41:53.456Z,1.12
2019-03-05T06:44:24.133Z,1.33
2019-03-05T06:46:52.895Z,1.00
2019-03-05T06:49:21.710Z,1.20
2019-03-05T06:51:50.534Z,0.80
2019-03-05T06:54:19.281Z,1.30
2019-03-05T06:56:48.025Z,1.00
2019-03-05T06:59:16.863Z,1.00
2019-03-05T07:01:45.692Z,0.87
2019-03-05T07:04:14.634Z,0.80
2019-03-05T07:06:51.306Z,1.00
2019-03-05T07:09:48.200Z,0.80
2019-03-05T07:12:34.263Z,1.02
2019-03-05T07:15:40.557Z,0.60
2019-03-05T07:18:13.754Z,1.20
2019-03-05T07:20:57.973Z,0.90
2019-03-05T07:23:56.980Z,1.07
2019-03-05T07:26:25.787Z,0.73
2019-03-05T07:28:54.559Z,1.00
2019-03-05T07:31:23.403Z,0.80
2019-03-05T07:33:52.145Z,0.60
2019-03-05T07:36:21.028Z,0.93
2019-03-05T07:38:49.772Z,0.80
2019-03-05T07:41:18.512Z,0.87
2019-03-05T07:43:47.347Z,1.00
2019-03-05T07:46:16.152Z,0.87
2019-03-05T07:48:45.171Z,0.83
2019-03-05T07:51:13.895Z,1.37
2019-03-05T07:53:42.663Z,0.53
2019-03-05T07:56:11.414Z,0.60
2019-03-05T07:58:40.164Z,0.80
2019-03-05T08:01:09.107Z,1.02
2019-03-05T08:03:37.924Z,0.77
2019-03-05T08:06:06.759Z,0.70
2019-03-05T08:09:12.603Z,0.80
2019-03-05T08:11:41.406Z,0.60
2019-03-05T08:14:42.930Z,0.90
2019-03-05T08:17:11.655Z,0.80
2019-03-05T08:19:40.388Z,0.93
2019-03-05T08:22:10.519Z,0.62
2019-03-05T08:24:39.261Z,0.97
2019-03-05T08:27:08.357Z,1.00
2019-03-05T08:29:37.128Z,3.40
2019-03-05T08:32:06.118Z,0.60
2019-03-05T08:34:34.851Z,0.90
2019-03-05T08:37:03.668Z,0.77
2019-03-05T08:39:32.565Z,0.50
2019-03-05T08:42:01.437Z,1.00
2019-03-05T08:44:30.170Z,0.72
2019-03-05T08:46:58.959Z,1.00
2019-03-05T08:49:29.333Z,0.50
2019-03-05T08:51:58.085Z,0.60
2019-03-05T08:54:26.840Z,1.00
2019-03-05T08:56:55.582Z,0.90
2019-03-05T08:59:24.316Z,1.67
2019-03-05T09:01:53.091Z,0.65
2019-03-05T09:04:21.848Z,1.00
2019-03-05T09:06:51.342Z,1.30
2019-03-05T09:09:20.159Z,0.90
2019-03-05T09:11:49.387Z,1.00
2019-03-05T09:14:18.271Z,0.77
2019-03-05T09:16:47.031Z,0.80
2019-03-05T09:19:16.030Z,1.60
2019-03-05T09:21:44.928Z,1.57
2019-03-05T09:24:13.750Z,1.90
2019-03-05T09:26:50.775Z,1.60
2019-03-05T09:29:14.116Z,1.53
2019-03-05T09:31:42.869Z,1.47
2019-03-05T09:34:11.582Z,1.60
2019-03-05T09:36:50.327Z,1.40
2019-03-05T09:39:13.302Z,2.37
2019-03-05T09:41:42.062Z,1.20
2019-03-05T09:44:10.800Z,1.47
2019-03-05T09:46:39.527Z,1.10
2019-03-05T09:49:08.482Z,1.87
2019-03-05T09:51:37.279Z,1.60
2019-03-05T09:54:06.244Z,0.60
2019-03-05T09:56:35.058Z,0.55
2019-03-05T09:59:05.317Z,0.77
2019-03-05T10:01:34.422Z,0.77
2019-03-05T10:04:03.270Z,0.60
2019-03-05T10:06:32.040Z,0.40
2019-03-05T10:09:00.850Z,0.53
2019-03-05T10:11:29.757Z,0.40
2019-03-05T10:13:59.578Z,0.43
2019-03-05T10:16:28.325Z,0.30
2019-03-05T10:18:57.072Z,0.60
2019-03-05T10:21:25.871Z,3.13
2019-03-05T10:23:54.731Z,1.12
2019-03-05T10:26:23.554Z,0.70
2019-03-05T10:28:53.177Z,0.93
2019-03-05T10:31:21.983Z,0.87
2019-03-05T10:33:51.514Z,1.10
2019-03-05T10:36:20.381Z,1.07
2019-03-05T10:38:56.855Z,1.00
2019-03-05T10:41:19.656Z,0.97
2019-03-05T10:43:48.398Z,0.97
2019-03-05T10:46:17.210Z,1.10
2019-03-05T10:48:45.942Z,0.90
2019-03-05T10:51:16.619Z,1.15
2019-03-05T10:53:45.683Z,1.00
2019-03-05T10:56:18.644Z,0.60
2019-03-05T10:58:49.106Z,0.80
2019-03-05T11:01:18.461Z,0.83
2019-03-05T11:03:50.399Z,0.70
2019-03-05T11:06:20.203Z,0.80
2019-03-05T11:08:50.963Z,0.90
2019-03-05T11:11:22.172Z,0.90
2019-03-05T11:13:55.981Z,0.90
2019-03-05T11:16:30.594Z,0.50
2019-03-05T11:18:56.640Z,0.70
2019-03-05T11:21:26.342Z,0.55
2019-03-05T11:23:55.239Z,0.37
2019-03-05T11:26:24.102Z,0.50
2019-03-05T11:28:54.744Z,0.40
2019-03-05T11:31:23.809Z,0.40
2019-03-05T11:33:52.616Z,0.30
2019-03-05T11:36:21.496Z,0.20
2019-03-05T11:38:50.264Z,0.20
2019-03-05T11:41:19.220Z,0.30
2019-03-05T11:43:48.591Z,0.30
2019-03-05T11:46:17.804Z,0.30
2019-03-05T11:48:46.622Z,0.20
2019-03-05T11:51:15.458Z,0.17
2019-03-05T11:53:44.216Z,0.20
2019-03-05T11:56:12.950Z,0.10
2019-03-05T11:58:41.718Z,0.30
2019-03-05T12:01:29.697Z,0.20
2019-03-05T12:03:59.032Z,0.20
2019-03-05T12:06:27.893Z,0.20
2019-03-05T12:08:56.636Z,0.20
2019-03-05T12:11:25.394Z,0.30
2019-03-05T12:13:54.162Z,0.20
2019-03-05T12:16:22.942Z,0.30
2019-03-05T12:18:51.671Z,0.20
2019-03-05T12:21:20.477Z,0.13
2019-03-05T12:23:49.369Z,0.20
2019-03-05T12:26:19.283Z,0.30
2019-03-05T12:28:48.031Z,0.80
2019-03-05T12:31:16.763Z,0.67
2019-03-05T12:33:45.576Z,0.30
2019-03-05T12:36:14.372Z,0.57
2019-03-05T12:38:43.162Z,0.60
2019-03-05T12:41:11.905Z,0.57
2019-03-05T12:43:40.638Z,0.40
2019-03-05T12:46:09.477Z,0.40
2019-03-05T12:48:40.351Z,0.40
2019-03-05T12:51:10.196Z,0.30
2019-03-05T12:53:39.015Z,0.30
2019-03-05T12:56:07.839Z,0.40
2019-03-05T12:58:36.585Z,0.30
2019-03-05T13:01:07.989Z,0.40
2019-03-05T13:03:36.730Z,0.40
2019-03-05T13:06:05.967Z,0.25
2019-03-05T13:08:34.708Z,0.20
2019-03-05T13:11:03.568Z,0.30
2019-03-05T13:13:32.325Z,2.10
2019-03-05T13:16:01.290Z,0.37
2019-03-05T13:18:32.407Z,0.20
2019-03-05T13:21:03.642Z,0.20
2019-03-05T13:23:32.039Z,0.30
2019-03-05T13:26:03.219Z,0.30
2019-03-05T13:28:31.263Z,0.20
2019-03-05T13:31:00.483Z,0.20
2019-03-05T13:33:38.046Z,0.30
2019-03-05T13:36:12.015Z,0.30
2019-03-05T13:38:41.736Z,0.40
2019-03-05T13:41:12.225Z,0.30
2019-03-05T13:43:51.979Z,1.67
2019-03-05T13:46:21.726Z,0.30
2019-03-05T13:49:39.951Z,0.30
2019-03-05T13:52:56.833Z,0.20
2019-03-05T13:56:05.048Z,0.20
2019-03-05T13:59:22.883Z,0.30
2019-03-05T14:01:52.008Z,0.40
2019-03-05T14:04:31.251Z,0.40
2019-03-05T14:07:23.633Z,0.30
2019-03-05T14:09:53.899Z,0.25
2019-03-05T14:12:22.982Z,0.50
2019-03-05T14:14:51.784Z,0.70
2019-03-05T14:17:27.640Z,0.40
2019-03-05T14:19:56.940Z,1.37
2019-03-05T14:22:25.993Z,0.37
2019-03-05T14:25:02.307Z,0.40
2019-03-05T14:27:26.280Z,0.30
2019-03-05T14:29:55.177Z,0.40
2019-03-05T14:32:25.657Z,0.43
2019-03-05T14:35:02.343Z,0.47
2019-03-05T14:37:32.341Z,0.40
2019-03-05T14:40:22.205Z,0.40
2019-03-05T14:42:32.827Z,0.40
2019-03-05T14:45:02.460Z,0.30
2019-03-05T14:47:31.292Z,0.53
2019-03-05T14:50:02.146Z,0.50
2019-03-05T14:52:30.713Z,0.30
2019-03-05T14:54:59.876Z,0.47
2019-03-05T14:57:28.637Z,0.30
2019-03-05T14:59:59.366Z,0.20
2019-03-05T15:02:28.102Z,0.40
2019-03-05T15:04:56.876Z,0.30
2019-03-05T15:07:25.708Z,0.40
2019-03-05T15:09:54.466Z,0.30
2019-03-05T15:12:23.530Z,0.40
2019-03-05T15:14:52.284Z,0.30
2019-03-05T15:17:21.089Z,0.50
2019-03-05T15:19:49.893Z,0.50
2019-03-05T15:22:18.683Z,0.30
2019-03-05T15:24:47.558Z,0.30
2019-03-05T15:27:16.286Z,0.30
2019-03-05T15:29:57.565Z,0.40
2019-03-05T15:32:26.792Z,0.30
2019-03-05T15:35:00.499Z,0.30
2019-03-05T15:37:30.874Z,0.30
2019-03-05T15:40:09.296Z,0.33
2019-03-05T15:42:39.210Z,0.40
2019-03-05T15:45:10.243Z,0.40
2019-03-05T15:47:42.612Z,0.40
2019-03-05T15:50:17.048Z,0.40
2019-03-05T15:52:46.155Z,0.40
2019-03-05T15:55:19.806Z,0.50
2019-03-05T15:57:48.699Z,0.50
2019-03-05T16:00:24.572Z,5.80
2019-03-05T16:02:56.040Z,0.80
2019-03-05T16:05:26.023Z,0.50
2019-03-05T16:07:55.033Z,0.30
2019-03-05T16:10:24.183Z,0.40
2019-03-05T16:12:53.047Z,0.80
2019-03-05T16:15:23.051Z,0.42
2019-03-05T16:17:51.832Z,0.50
2019-03-05T16:20:25.787Z,0.40
2019-03-05T16:22:55.155Z,0.40
2019-03-05T16:25:24.284Z,0.60
2019-03-05T16:27:53.062Z,0.40
2019-03-05T16:30:45.148Z,0.40
2019-03-05T16:33:24.714Z,0.70
2019-03-05T16:36:25.301Z,0.80
2019-03-05T16:39:10.589Z,0.78
2019-03-05T16:41:58.633Z,1.07
2019-03-05T16:44:39.278Z,0.70
2019-03-05T16:47:30.017Z,0.50
2019-03-05T16:50:19.051Z,0.60
2019-03-05T16:53:05.625Z,0.70
2019-03-05T16:56:05.865Z,0.80
2019-03-05T16:58:52.438Z,1.05
2019-03-05T17:01:29.135Z,0.90
2019-03-05T17:04:15.839Z,1.30
2019-03-05T17:07:03.042Z,3.57
2019-03-05T17:09:50.629Z,1.00
2019-03-05T17:12:19.436Z,1.17
2019-03-05T17:14:48.744Z,1.20
2019-03-05T17:17:18.001Z,1.40
2019-03-05T17:19:48.052Z,1.00
2019-03-05T17:22:16.863Z,1.00
2019-03-05T17:24:45.619Z,0.93
2019-03-05T17:27:14.388Z,1.30
2019-03-05T17:29:43.172Z,1.00
2019-03-05T17:32:12.240Z,1.13
2019-03-05T17:34:40.996Z,1.32
2019-03-05T17:37:09.792Z,1.30
2019-03-05T17:39:38.568Z,1.20
2019-03-05T17:42:07.447Z,1.50
2019-03-05T17:44:36.182Z,1.23
2019-03-05T17:47:04.914Z,1.00
2019-03-05T17:49:34.513Z,9.75
2019-03-05T17:52:04.638Z,3.17
2019-03-05T17:54:33.620Z,1.63
2019-03-05T17:57:02.455Z,1.50
2019-03-05T17:59:31.170Z,1.53
2019-03-05T18:02:00.002Z,1.50
2019-03-05T18:04:30.061Z,1.80
2019-03-05T18:06:59.312Z,1.70
2019-03-05T18:09:28.255Z,1.50
2019-03-05T18:11:57.260Z,1.63
2019-03-05T18:14:26.052Z,1.30
2019-03-05T18:16:55.132Z,1.40
2019-03-05T18:19:26.543Z,1.10
2019-03-05T18:21:55.399Z,1.00
2019-03-05T18:24:24.125Z,1.07
2019-03-05T18:26:52.953Z,1.00
2019-03-05T18:29:21.876Z,1.65
2019-03-05T18:31:50.891Z,1.17
2019-03-05T18:34:19.887Z,1.60
2019-03-05T18:36:48.670Z,1.57
2019-03-05T18:39:20.200Z,1.60
2019-03-05T18:41:48.964Z,1.73
2019-03-05T18:44:17.751Z,1.77
2019-03-05T18:46:46.616Z,1.50
2019-03-05T18:49:15.468Z,1.30
2019-03-05T18:51:44.323Z,1.40
2019-03-05T18:54:13.093Z,1.57
2019-03-05T18:56:41.849Z,1.57
2019-03-05T18:59:10.620Z,2.03
2019-03-05T19:01:39.807Z,5.33
2019-03-05T19:04:08.592Z,2.70
2019-03-05T19:06:39.528Z,1.30
2019-03-05T19:09:08.620Z,1.13
2019-03-05T19:11:37.720Z,1.73
2019-03-05T19:14:06.608Z,1.30
2019-03-05T19:16:41.805Z,1.30
2019-03-05T19:19:13.235Z,1.17
2019-03-05T19:21:42.301Z,1.10
2019-03-05T19:24:11.127Z,1.67
2019-03-05T19:26:40.070Z,1.70
2019-03-05T19:29:08.834Z,1.45
2019-03-05T19:31:37.749Z,1.70
2019-03-05T19:34:14.106Z,1.90
2019-03-05T19:36:48.119Z,1.70
2019-03-05T19:39:18.632Z,2.37
2019-03-05T19:41:55.774Z,2.33
2019-03-05T19:44:19.701Z,2.43
2019-03-05T19:46:48.468Z,2.65
2019-03-05T19:49:19.625Z,2.60
2019-03-05T19:51:50.534Z,2.47
2019-03-05T19:54:20.246Z,2.97
2019-03-05T19:56:48.968Z,3.10
2019-03-05T19:59:19.293Z,3.10
2019-03-05T20:01:49.442Z,3.77
2019-03-05T20:04:18.416Z,3.50
2019-03-05T20:06:47.219Z,3.63
2019-03-05T20:09:20.994Z,3.20
2019-03-05T20:11:49.744Z,3.40
2019-03-05T20:14:18.632Z,3.20
2019-03-05T20:16:47.373Z,3.00
2019-03-05T20:19:16.235Z,3.60
2019-03-05T20:21:45.054Z,3.50
2019-03-05T20:24:13.818Z,3.27
2019-03-05T20:26:42.640Z,4.83
2019-03-05T20:29:11.429Z,3.53
2019-03-05T20:31:40.233Z,3.77
2019-03-05T20:34:08.980Z,3.83
2019-03-05T20:36:37.727Z,3.60
2019-03-05T20:39:07.041Z,4.40
2019-03-05T20:41:38.034Z,4.37
2019-03-05T20:44:06.993Z,4.42
2019-03-05T20:46:35.827Z,5.00
2019-03-05T20:49:04.690Z,5.03
2019-03-05T20:51:33.471Z,4.70
2019-03-05T20:54:03.258Z,5.20
2019-03-05T20:56:32.021Z,5.33
2019-03-05T20:59:00.776Z,5.00
2019-03-05T21:01:31.686Z,5.93
2019-03-05T21:04:00.487Z,6.30
2019-03-05T21:06:29.236Z,5.67
2019-03-05T21:08:57.993Z,5.87
2019-03-05T21:11:26.850Z,6.00
2019-03-05T21:13:55.759Z,5.63
2019-03-05T21:16:24.505Z,6.20
2019-03-05T21:18:53.240Z,6.65
2019-03-05T21:21:22.039Z,7.23
2019-03-05T21:23:50.775Z,6.93
2019-03-05T21:26:19.554Z,6.63
2019-03-05T21:28:48.289Z,6.77
2019-03-05T21:31:17.215Z,7.23
2019-03-05T21:33:45.968Z,7.25
2019-03-05T21:36:14.789Z,6.90
2019-03-05T21:38:43.572Z,7.00
2019-03-05T21:41:13.280Z,6.73
2019-03-05T21:43:42.386Z,7.80
2019-03-05T21:46:14.717Z,8.17
2019-03-05T21:48:43.624Z,8.50
2019-03-05T21:51:12.627Z,7.70
2019-03-05T21:53:41.947Z,9.37
2019-03-05T21:56:10.981Z,9.60
2019-03-05T21:58:39.918Z,10.13
2019-03-05T22:01:08.897Z,10.88
2019-03-05T22:03:37.759Z,9.40
2019-03-05T22:06:07.009Z,9.50
2019-03-05T22:08:35.759Z,9.10
2019-03-05T22:11:05.288Z,8.17
2019-03-05T22:13:34.025Z,8.30
2019-03-05T22:16:03.047Z,9.10
2019-03-05T22:18:31.874Z,10.03
2019-03-05T22:21:00.697Z,9.77
2019-03-05T22:23:29.451Z,9.03
2019-03-05T22:25:58.232Z,10.47
2019-03-05T22:28:27.029Z,9.37
2019-03-05T22:30:57.312Z,9.77
2019-03-05T22:33:27.967Z,9.10
2019-03-05T22:35:56.734Z,9.27
2019-03-05T22:38:27.316Z,8.78
2019-03-05T22:40:56.419Z,7.90
2019-03-05T22:43:25.573Z,8.10
2019-03-05T22:45:54.912Z,7.77
2019-03-05T22:48:23.842Z,8.40
2019-03-05T22:50:52.972Z,7.40
2019-03-05T22:53:22.419Z,7.60
2019-03-05T22:55:52.035Z,7.37
2019-03-05T22:58:21.261Z,7.57
2019-03-05T23:01:12.949Z,7.97
2019-03-05T23:03:53.174Z,8.37
2019-03-05T23:06:22.540Z,8.20
2019-03-05T23:08:53.624Z,7.97
2019-03-05T23:11:23.041Z,7.50
2019-03-05T23:13:52.259Z,8.03
2019-03-05T23:16:21.540Z,7.97
2019-03-05T23:18:50.279Z,7.75
2019-03-05T23:21:19.140Z,9.00
2019-03-05T23:23:48.342Z,9.07
2019-03-05T23:26:17.160Z,8.73
2019-03-05T23:28:46.107Z,8.37
2019-03-05T23:31:15.119Z,7.70
2019-03-05T23:33:44.130Z,8.60
2019-03-05T23:36:12.986Z,8.83
2019-03-05T23:38:41.715Z,8.30
2019-03-05T23:41:10.554Z,8.43
2019-03-05T23:43:39.294Z,8.50
2019-03-05T23:46:08.108Z,8.43
2019-03-05T23:48:36.858Z,8.73
2019-03-05T23:51:05.749Z,8.77
2019-03-05T23:53:34.496Z,8.47
2019-03-05T23:56:03.251Z,9.20
2019-03-05T23:58:31.989Z,9.40
